sensor_id;sensor_type;location;lat;lon;timestamp;P1;durP1;ratioP1;P2;durP2;ratioP2
6941;SDS011;3510;43.200;27.920;2023-03-01T00:56:21;4.83;;;4.53;;
6941;SDS011;3510;43.200;27.920;2023-03-01T00:58:48;5.87;;;5.37;;
6941;SDS011;3510;43.200;27.920;2023-03-01T01:01:17;5.47;;;4.07;;
6941;SDS011;3510;43.200;27.920;2023-03-01T01:03:47;5.03;;;4.53;;
6941;SDS011;3510;43.200;27.920;2023-03-01T01:06:16;7.07;;;4.20;;
6941;SDS011;3510;43.200;27.920;2023-03-01T01:08:44;4.77;;;4.47;;
6941;SDS011;3510;43.200;27.920;2023-03-01T01:11:11;5.10;;;4.80;;
6941;SDS011;3510;43.200;27.920;2023-03-01T01:13:38;5.57;;;4.40;;
6941;SDS011;3510;43.200;27.920;2023-03-01T01:16:06;4.60;;;4.33;;
6941;SDS011;3510;43.200;27.920;2023-03-01T01:18:35;5.80;;;5.20;;
6941;SDS011;3510;43.200;27.920;2023-03-01T01:21:03;6.32;;;5.50;;
6941;SDS011;3510;43.200;27.920;2023-03-01T01:23:31;6.50;;;5.90;;
6941;SDS011;3510;43.200;27.920;2023-03-01T01:26:02;6.70;;;6.10;;
6941;SDS011;3510;43.200;27.920;2023-03-01T01:28:30;7.13;;;6.45;;
6941;SDS011;3510;43.200;27.920;2023-03-01T01:30:57;6.65;;;6.10;;
6941;SDS011;3510;43.200;27.920;2023-03-01T01:33:23;7.22;;;6.50;;
6941;SDS011;3510;43.200;27.920;2023-03-01T01:35:51;7.93;;;7.22;;
6941;SDS011;3510;43.200;27.920;2023-03-01T01:38:18;7.43;;;6.80;;
6941;SDS011;3510;43.200;27.920;2023-03-01T01:40:46;7.95;;;7.25;;
6941;SDS011;3510;43.200;27.920;2023-03-01T01:43:16;9.05;;;7.72;;
6941;SDS011;3510;43.200;27.920;2023-03-01T01:45:46;9.00;;;8.10;;
6941;SDS011;3510;43.200;27.920;2023-03-01T01:48:14;8.77;;;7.93;;
6941;SDS011;3510;43.200;27.920;2023-03-01T01:50:44;8.95;;;8.15;;
6941;SDS011;3510;43.200;27.920;2023-03-01T01:53:18;8.68;;;7.97;;
6941;SDS011;3510;43.200;27.920;2023-03-01T01:55:47;8.98;;;8.18;;
6941;SDS011;3510;43.200;27.920;2023-03-01T01:58:18;8.95;;;8.20;;
6941;SDS011;3510;43.200;27.920;2023-03-01T02:00:47;9.55;;;8.80;;
6941;SDS011;3510;43.200;27.920;2023-03-01T02:03:17;9.73;;;8.93;;
6941;SDS011;3510;43.200;27.920;2023-03-01T02:05:47;10.80;;;9.70;;
6941;SDS011;3510;43.200;27.920;2023-03-01T02:08:21;10.18;;;9.30;;
6941;SDS011;3510;43.200;27.920;2023-03-01T02:10:51;10.88;;;9.77;;
6941;SDS011;3510;43.200;27.920;2023-03-01T02:13:19;10.80;;;9.80;;
6941;SDS011;3510;43.200;27.920;2023-03-01T02:15:45;11.30;;;10.20;;
6941;SDS011;3510;43.200;27.920;2023-03-01T02:18:13;11.43;;;10.43;;
6941;SDS011;3510;43.200;27.920;2023-03-01T02:20:44;10.43;;;9.52;;
6941;SDS011;3510;43.200;27.920;2023-03-01T02:23:23;11.35;;;9.90;;
6941;SDS011;3510;43.200;27.920;2023-03-01T02:25:52;10.85;;;9.95;;
6941;SDS011;3510;43.200;27.920;2023-03-01T02:28:27;10.43;;;9.50;;
6941;SDS011;3510;43.200;27.920;2023-03-01T02:30:56;11.77;;;10.68;;
6941;SDS011;3510;43.200;27.920;2023-03-01T02:33:37;11.48;;;10.38;;
6941;SDS011;3510;43.200;27.920;2023-03-01T02:36:06;11.93;;;10.75;;
6941;SDS011;3510;43.200;27.920;2023-03-01T02:38:38;11.82;;;10.80;;
6941;SDS011;3510;43.200;27.920;2023-03-01T02:41:05;12.20;;;10.90;;
6941;SDS011;3510;43.200;27.920;2023-03-01T02:43:36;12.10;;;10.88;;
6941;SDS011;3510;43.200;27.920;2023-03-01T02:46:04;13.60;;;10.85;;
6941;SDS011;3510;43.200;27.920;2023-03-01T02:48:41;13.05;;;11.57;;
6941;SDS011;3510;43.200;27.920;2023-03-01T02:51:11;13.38;;;11.50;;
6941;SDS011;3510;43.200;27.920;2023-03-01T02:53:49;13.60;;;11.50;;
6941;SDS011;3510;43.200;27.920;2023-03-01T02:56:26;13.27;;;11.98;;
6941;SDS011;3510;43.200;27.920;2023-03-01T02:58:56;13.07;;;11.88;;
6941;SDS011;3510;43.200;27.920;2023-03-01T03:01:26;14.57;;;12.60;;
6941;SDS011;3510;43.200;27.920;2023-03-01T03:04:01;14.13;;;12.70;;
6941;SDS011;3510;43.200;27.920;2023-03-01T03:06:28;14.40;;;12.88;;
6941;SDS011;3510;43.200;27.920;2023-03-01T03:08:56;14.13;;;12.65;;
6941;SDS011;3510;43.200;27.920;2023-03-01T03:11:22;17.55;;;13.80;;
6941;SDS011;3510;43.200;27.920;2023-03-01T03:13:49;14.63;;;13.02;;
6941;SDS011;3510;43.200;27.920;2023-03-01T03:16:18;17.45;;;13.63;;
6941;SDS011;3510;43.200;27.920;2023-03-01T03:18:45;15.70;;;13.52;;
6941;SDS011;3510;43.200;27.920;2023-03-01T03:21:12;14.70;;;13.30;;
6941;SDS011;3510;43.200;27.920;2023-03-01T03:23:40;15.00;;;13.50;;
6941;SDS011;3510;43.200;27.920;2023-03-01T03:26:06;15.70;;;14.13;;
6941;SDS011;3510;43.200;27.920;2023-03-01T03:28:34;15.80;;;13.52;;
6941;SDS011;3510;43.200;27.920;2023-03-01T03:31:05;14.95;;;13.45;;
6941;SDS011;3510;43.200;27.920;2023-03-01T03:33:34;19.63;;;14.07;;
6941;SDS011;3510;43.200;27.920;2023-03-01T03:36:01;15.93;;;14.45;;
6941;SDS011;3510;43.200;27.920;2023-03-01T03:38:28;15.55;;;14.00;;
6941;SDS011;3510;43.200;27.920;2023-03-01T03:40:59;15.65;;;13.93;;
6941;SDS011;3510;43.200;27.920;2023-03-01T03:43:29;15.45;;;13.90;;
6941;SDS011;3510;43.200;27.920;2023-03-01T03:45:56;16.80;;;15.18;;
6941;SDS011;3510;43.200;27.920;2023-03-01T03:48:23;16.93;;;15.13;;
6941;SDS011;3510;43.200;27.920;2023-03-01T03:50:53;16.45;;;14.85;;
6941;SDS011;3510;43.200;27.920;2023-03-01T03:53:21;19.00;;;15.80;;
6941;SDS011;3510;43.200;27.920;2023-03-01T03:55:48;17.13;;;15.48;;
6941;SDS011;3510;43.200;27.920;2023-03-01T03:58:17;18.50;;;16.00;;
6941;SDS011;3510;43.200;27.920;2023-03-01T04:00:45;18.23;;;15.98;;
6941;SDS011;3510;43.200;27.920;2023-03-01T04:03:14;19.40;;;16.08;;
6941;SDS011;3510;43.200;27.920;2023-03-01T04:05:41;17.70;;;16.02;;
6941;SDS011;3510;43.200;27.920;2023-03-01T04:08:10;18.67;;;15.87;;
6941;SDS011;3510;43.200;27.920;2023-03-01T04:10:38;16.48;;;14.98;;
6941;SDS011;3510;43.200;27.920;2023-03-01T04:13:06;17.73;;;15.93;;
6941;SDS011;3510;43.200;27.920;2023-03-01T04:15:36;17.63;;;15.82;;
6941;SDS011;3510;43.200;27.920;2023-03-01T04:18:03;16.93;;;15.13;;
6941;SDS011;3510;43.200;27.920;2023-03-01T04:20:32;18.20;;;16.27;;
6941;SDS011;3510;43.200;27.920;2023-03-01T04:23:01;17.83;;;15.70;;
6941;SDS011;3510;43.200;27.920;2023-03-01T04:25:38;17.63;;;15.82;;
6941;SDS011;3510;43.200;27.920;2023-03-01T04:28:06;17.87;;;15.97;;
6941;SDS011;3510;43.200;27.920;2023-03-01T04:30:32;17.63;;;15.67;;
6941;SDS011;3510;43.200;27.920;2023-03-01T04:33:02;17.67;;;15.73;;
6941;SDS011;3510;43.200;27.920;2023-03-01T04:35:29;17.10;;;15.50;;
6941;SDS011;3510;43.200;27.920;2023-03-01T04:37:56;18.20;;;16.25;;
6941;SDS011;3510;43.200;27.920;2023-03-01T04:40:23;17.98;;;16.08;;
6941;SDS011;3510;43.200;27.920;2023-03-01T04:42:52;15.77;;;14.30;;
6941;SDS011;3510;43.200;27.920;2023-03-01T04:45:19;17.55;;;15.65;;
6941;SDS011;3510;43.200;27.920;2023-03-01T04:47:46;16.88;;;15.15;;
6941;SDS011;3510;43.200;27.920;2023-03-01T04:50:15;17.63;;;15.18;;
6941;SDS011;3510;43.200;27.920;2023-03-01T04:52:45;16.90;;;15.02;;
6941;SDS011;3510;43.200;27.920;2023-03-01T04:55:13;18.40;;;15.27;;
6941;SDS011;3510;43.200;27.920;2023-03-01T04:57:39;16.58;;;14.98;;
6941;SDS011;3510;43.200;27.920;2023-03-01T05:00:09;16.75;;;14.85;;
6941;SDS011;3510;43.200;27.920;2023-03-01T05:02:47;19.48;;;15.00;;
6941;SDS011;3510;43.200;27.920;2023-03-01T05:05:21;15.75;;;14.18;;
6941;SDS011;3510;43.200;27.920;2023-03-01T05:07:51;17.25;;;13.93;;
6941;SDS011;3510;43.200;27.920;2023-03-01T05:10:19;17.17;;;14.50;;
6941;SDS011;3510;43.200;27.920;2023-03-01T05:12:46;16.10;;;14.32;;
6941;SDS011;3510;43.200;27.920;2023-03-01T05:15:14;15.38;;;13.82;;
6941;SDS011;3510;43.200;27.920;2023-03-01T05:17:41;14.88;;;13.48;;
6941;SDS011;3510;43.200;27.920;2023-03-01T05:20:08;15.68;;;14.23;;
6941;SDS011;3510;43.200;27.920;2023-03-01T05:22:36;17.02;;;14.02;;
6941;SDS011;3510;43.200;27.920;2023-03-01T05:25:04;16.65;;;14.88;;
6941;SDS011;3510;43.200;27.920;2023-03-01T05:27:32;16.33;;;13.97;;
6941;SDS011;3510;43.200;27.920;2023-03-01T05:29:59;15.43;;;13.95;;
6941;SDS011;3510;43.200;27.920;2023-03-01T05:32:39;16.90;;;14.55;;
6941;SDS011;3510;43.200;27.920;2023-03-01T05:35:08;15.27;;;13.77;;
6941;SDS011;3510;43.200;27.920;2023-03-01T05:37:39;15.45;;;13.95;;
6941;SDS011;3510;43.200;27.920;2023-03-01T05:40:08;15.68;;;14.05;;
6941;SDS011;3510;43.200;27.920;2023-03-01T05:42:41;18.97;;;15.03;;
6941;SDS011;3510;43.200;27.920;2023-03-01T05:45:09;20.93;;;15.33;;
6941;SDS011;3510;43.200;27.920;2023-03-01T05:47:37;18.23;;;15.15;;
6941;SDS011;3510;43.200;27.920;2023-03-01T05:50:10;16.63;;;14.98;;
6941;SDS011;3510;43.200;27.920;2023-03-01T05:52:38;16.10;;;14.60;;
6941;SDS011;3510;43.200;27.920;2023-03-01T05:55:05;15.63;;;14.13;;
6941;SDS011;3510;43.200;27.920;2023-03-01T05:57:32;16.20;;;14.57;;
6941;SDS011;3510;43.200;27.920;2023-03-01T06:00:01;15.45;;;13.85;;
6941;SDS011;3510;43.200;27.920;2023-03-01T06:02:29;15.98;;;14.32;;
6941;SDS011;3510;43.200;27.920;2023-03-01T06:04:56;18.97;;;14.47;;
6941;SDS011;3510;43.200;27.920;2023-03-01T06:07:23;15.03;;;13.50;;
6941;SDS011;3510;43.200;27.920;2023-03-01T06:09:50;14.30;;;12.82;;
6941;SDS011;3510;43.200;27.920;2023-03-01T06:12:16;16.58;;;14.32;;
6941;SDS011;3510;43.200;27.920;2023-03-01T06:14:44;14.77;;;13.27;;
6941;SDS011;3510;43.200;27.920;2023-03-01T06:17:11;14.63;;;13.23;;
6941;SDS011;3510;43.200;27.920;2023-03-01T06:19:38;15.15;;;13.65;;
6941;SDS011;3510;43.200;27.920;2023-03-01T06:22:06;14.88;;;13.38;;
6941;SDS011;3510;43.200;27.920;2023-03-01T06:24:33;14.95;;;13.35;;
6941;SDS011;3510;43.200;27.920;2023-03-01T06:27:00;13.88;;;12.57;;
6941;SDS011;3510;43.200;27.920;2023-03-01T06:29:27;15.27;;;13.60;;
6941;SDS011;3510;43.200;27.920;2023-03-01T06:31:53;15.18;;;13.73;;
6941;SDS011;3510;43.200;27.920;2023-03-01T06:34:20;15.02;;;13.45;;
6941;SDS011;3510;43.200;27.920;2023-03-01T06:36:51;15.10;;;13.60;;
6941;SDS011;3510;43.200;27.920;2023-03-01T06:39:19;16.27;;;13.77;;
6941;SDS011;3510;43.200;27.920;2023-03-01T06:41:46;14.77;;;13.27;;
6941;SDS011;3510;43.200;27.920;2023-03-01T06:44:13;14.60;;;13.10;;
6941;SDS011;3510;43.200;27.920;2023-03-01T06:46:40;15.70;;;14.23;;
6941;SDS011;3510;43.200;27.920;2023-03-01T06:49:07;15.35;;;13.80;;
6941;SDS011;3510;43.200;27.920;2023-03-01T06:51:34;14.98;;;13.40;;
6941;SDS011;3510;43.200;27.920;2023-03-01T06:54:03;14.85;;;12.98;;
6941;SDS011;3510;43.200;27.920;2023-03-01T06:56:31;15.57;;;14.00;;
6941;SDS011;3510;43.200;27.920;2023-03-01T06:58:58;16.70;;;14.50;;
6941;SDS011;3510;43.200;27.920;2023-03-01T07:01:25;14.98;;;13.48;;
6941;SDS011;3510;43.200;27.920;2023-03-01T07:03:53;18.45;;;14.57;;
6941;SDS011;3510;43.200;27.920;2023-03-01T07:06:20;15.05;;;13.65;;
6941;SDS011;3510;43.200;27.920;2023-03-01T07:08:47;14.98;;;13.38;;
6941;SDS011;3510;43.200;27.920;2023-03-01T07:11:13;15.40;;;13.93;;
6941;SDS011;3510;43.200;27.920;2023-03-01T07:13:43;15.75;;;14.10;;
6941;SDS011;3510;43.200;27.920;2023-03-01T07:16:10;15.55;;;13.95;;
6941;SDS011;3510;43.200;27.920;2023-03-01T07:18:54;20.48;;;14.80;;
6941;SDS011;3510;43.200;27.920;2023-03-01T07:21:21;16.20;;;14.40;;
6941;SDS011;3510;43.200;27.920;2023-03-01T07:23:47;15.43;;;13.93;;
6941;SDS011;3510;43.200;27.920;2023-03-01T07:26:14;15.23;;;13.77;;
6941;SDS011;3510;43.200;27.920;2023-03-01T07:28:42;17.35;;;15.57;;
6941;SDS011;3510;43.200;27.920;2023-03-01T07:31:09;17.42;;;15.32;;
6941;SDS011;3510;43.200;27.920;2023-03-01T07:33:36;18.27;;;14.45;;
6941;SDS011;3510;43.200;27.920;2023-03-01T07:36:03;16.00;;;14.40;;
6941;SDS011;3510;43.200;27.920;2023-03-01T07:38:31;16.13;;;14.23;;
6941;SDS011;3510;43.200;27.920;2023-03-01T07:40:58;17.25;;;14.50;;
6941;SDS011;3510;43.200;27.920;2023-03-01T07:43:26;16.38;;;14.82;;
6941;SDS011;3510;43.200;27.920;2023-03-01T07:45:59;16.87;;;14.57;;
6941;SDS011;3510;43.200;27.920;2023-03-01T07:48:26;16.27;;;14.68;;
6941;SDS011;3510;43.200;27.920;2023-03-01T07:50:53;16.30;;;14.80;;
6941;SDS011;3510;43.200;27.920;2023-03-01T07:53:20;16.05;;;14.38;;
6941;SDS011;3510;43.200;27.920;2023-03-01T07:55:48;17.58;;;15.60;;
6941;SDS011;3510;43.200;27.920;2023-03-01T07:58:15;16.95;;;14.85;;
6941;SDS011;3510;43.200;27.920;2023-03-01T08:00:42;19.63;;;15.33;;
6941;SDS011;3510;43.200;27.920;2023-03-01T08:03:10;19.10;;;15.35;;
6941;SDS011;3510;43.200;27.920;2023-03-01T08:05:37;17.58;;;15.27;;
6941;SDS011;3510;43.200;27.920;2023-03-01T08:08:04;17.08;;;15.23;;
6941;SDS011;3510;43.200;27.920;2023-03-01T08:10:31;19.02;;;15.20;;
6941;SDS011;3510;43.200;27.920;2023-03-01T08:12:57;19.87;;;15.33;;
6941;SDS011;3510;43.200;27.920;2023-03-01T13:19:12;9.47;;;5.13;;
6941;SDS011;3510;43.200;27.920;2023-03-01T13:21:41;6.03;;;5.37;;
6941;SDS011;3510;43.200;27.920;2023-03-01T13:29:43;9.33;;;5.57;;
6941;SDS011;3510;43.200;27.920;2023-03-01T13:32:18;9.93;;;6.77;;
6941;SDS011;3510;43.200;27.920;2023-03-01T13:34:49;11.17;;;6.37;;
6941;SDS011;3510;43.200;27.920;2023-03-01T13:37:21;6.37;;;5.27;;
6941;SDS011;3510;43.200;27.920;2023-03-01T13:39:59;5.77;;;5.27;;
6941;SDS011;3510;43.200;27.920;2023-03-01T13:42:32;9.83;;;5.20;;
6941;SDS011;3510;43.200;27.920;2023-03-01T13:45:02;11.00;;;5.77;;
6941;SDS011;3510;43.200;27.920;2023-03-01T13:47:30;6.47;;;5.27;;
6941;SDS011;3510;43.200;27.920;2023-03-01T13:50:01;6.30;;;5.70;;
6941;SDS011;3510;43.200;27.920;2023-03-01T13:52:32;8.10;;;5.80;;
6941;SDS011;3510;43.200;27.920;2023-03-01T13:55:22;5.83;;;5.10;;
6941;SDS011;3510;43.200;27.920;2023-03-01T13:57:53;8.53;;;5.37;;
6941;SDS011;3510;43.200;27.920;2023-03-01T14:00:25;10.97;;;5.47;;
6941;SDS011;3510;43.200;27.920;2023-03-01T14:03:03;9.47;;;5.53;;
6941;SDS011;3510;43.200;27.920;2023-03-01T14:05:32;9.43;;;5.63;;
6941;SDS011;3510;43.200;27.920;2023-03-01T14:08:01;5.63;;;4.57;;
6941;SDS011;3510;43.200;27.920;2023-03-01T14:10:32;4.53;;;4.13;;
6941;SDS011;3510;43.200;27.920;2023-03-01T14:13:10;8.73;;;5.00;;
6941;SDS011;3510;43.200;27.920;2023-03-01T14:15:56;5.33;;;4.73;;
6941;SDS011;3510;43.200;27.920;2023-03-01T14:18:39;10.03;;;5.93;;
6941;SDS011;3510;43.200;27.920;2023-03-01T14:21:14;8.30;;;5.60;;
6941;SDS011;3510;43.200;27.920;2023-03-01T14:23:42;5.80;;;5.37;;
6941;SDS011;3510;43.200;27.920;2023-03-01T14:26:13;5.60;;;5.10;;
6941;SDS011;3510;43.200;27.920;2023-03-01T14:28:46;6.90;;;5.27;;
6941;SDS011;3510;43.200;27.920;2023-03-01T14:33:59;12.60;;;6.50;;
6941;SDS011;3510;43.200;27.920;2023-03-01T14:36:26;10.33;;;5.40;;
6941;SDS011;3510;43.200;27.920;2023-03-01T14:38:54;6.80;;;5.40;;
6941;SDS011;3510;43.200;27.920;2023-03-01T14:41:25;8.27;;;5.67;;
6941;SDS011;3510;43.200;27.920;2023-03-01T14:43:55;7.17;;;5.97;;
6941;SDS011;3510;43.200;27.920;2023-03-01T14:46:25;7.00;;;5.57;;
6941;SDS011;3510;43.200;27.920;2023-03-01T14:48:56;11.17;;;6.03;;
6941;SDS011;3510;43.200;27.920;2023-03-01T14:51:27;12.23;;;6.73;;
6941;SDS011;3510;43.200;27.920;2023-03-01T14:53:54;19.27;;;5.97;;
6941;SDS011;3510;43.200;27.920;2023-03-01T14:56:22;13.03;;;6.30;;
6941;SDS011;3510;43.200;27.920;2023-03-01T14:58:52;9.32;;;6.80;;
6941;SDS011;3510;43.200;27.920;2023-03-01T15:01:23;12.27;;;7.00;;
